Latest Weather Observations for Longerenong

IDV60801

Issued at 11:02 am EDT Saturday 7 March 2015 (issued every 30 minutes, with the page automatically refreshed every 10 minutes)

About weather observations | Map of weather stations | Latest weather observations for VIC | Other Formats
Station Details ID: 079028 Name: LONGERENONG Lat: -36.67 Lon: 142.30 Height: 133.0 m
Data from the previous 72 hours. | See also: Recent months at Longerenong
Date/Time
EDT
Temp
°C
App
Temp
°C
Dew
Point
Rel
Hum
%
Delta-T
°C
Wind Press
QNH
hPa
Press
MSL
hPa
Rain
since 9 am
mm
Dir
 
Spd
km/h
Gust
km/h
Spd
kts
Gust
kts
07/11:00am 16.9 - - - - WSW 17 24 9 13 - - 0.0
07/10:30am 16.4 - - - - WSW 17 22 9 12 - - 0.0
07/10:00am 15.9 - - - - W 19 22 10 12 - - 0.0
07/09:30am 15.1 - - - - W 13 20 7 11 - - 0.0
07/09:00am 14.0 - - - - WSW 9 15 5 8 - - 0.0
07/08:30am 13.5 - - - - W 11 13 6 7 - - 0.0
07/08:00am 13.2 - - - - W 9 17 5 9 - - 0.0
07/07:30am 12.7 - - - - W 9 11 5 6 - - 0.0
07/07:00am 13.0 - - - - W 11 15 6 8 - - 0.0
07/06:30am 13.2 - - - - W 9 13 5 7 - - 0.0
07/06:00am 12.9 - - - - WSW 9 13 5 7 - - 0.0
07/05:30am 13.4 - - - - W 9 11 5 6 - - 0.0
07/05:00am 13.6 - - - - WSW 13 19 7 10 - - 0.0
07/04:30am 14.0 - - - - WSW 15 24 8 13 - - 0.0
07/04:00am 14.0 - - - - W 15 19 8 10 - - 0.0
07/03:30am 14.6 - - - - WSW 19 24 10 13 - - 0.0
07/03:00am 15.5 - - - - SW 22 30 12 16 - - 0.0
07/02:30am 16.0 - - - - SW 19 26 10 14 - - 0.0
07/02:00am 16.3 - - - - SW 15 20 8 11 - - 0.0
07/01:30am 16.4 - - - - WSW 22 30 12 16 - - 0.0
07/01:00am 16.8 - - - - W 17 24 9 13 - - 0.0
07/12:30am 17.1 - - - - WSW 15 20 8 11 - - 0.0
07/12:00am 17.0 - - - - WSW 9 20 5 11 - - 0.0
 
Date/Time
EDT
Temp
°C
App
Temp
°C
Dew
Point
Rel
Hum
%
Delta-T
°C
Wind Press
QNH
hPa
Press
MSL
hPa
Rain
since 9 am
mm
Dir
 
Spd
km/h
Gust
km/h
Spd
kts
Gust
kts
06/11:30pm 15.9 - - - - W 9 11 5 6 - - 0.0
06/11:00pm 14.4 - - - - W 9 11 5 6 - - 0.0
06/10:30pm 16.4 - - - - WSW 13 19 7 10 - - 0.0
06/10:00pm 16.7 - - - - SW 9 15 5 8 - - 0.0
06/09:30pm 17.5 - - - - SW 11 15 6 8 - - 0.0
06/09:00pm 18.6 - - - - SW 19 28 10 15 - - 0.0
06/08:30pm 18.6 - - - - SW 13 17 7 9 - - 0.0
06/08:00pm 19.5 - - - - SW 20 28 11 15 - - 0.0
06/07:30pm 20.1 - - - - SW 24 33 13 18 - - 0.0
06/07:00pm 21.0 - - - - SW 22 30 12 16 - - 0.0
06/06:30pm 21.3 - - - - SW 19 30 10 16 - - 0.0
06/06:00pm 21.3 - - - - SW 22 30 12 16 - - 0.0
06/05:30pm 22.0 - - - - SW 26 37 14 20 - - 0.0
06/05:00pm 22.1 - - - - SW 26 35 14 19 - - 0.0
06/04:30pm 21.1 - - - - SW 24 32 13 17 - - 0.0
06/04:00pm 20.8 - - - - WSW 24 37 13 20 - - 0.0
06/03:30pm 21.4 - - - - SW 17 24 9 13 - - 0.0
06/03:00pm 20.6 - - - - SW 24 33 13 18 - - 0.0
06/02:30pm 21.1 - - - - WSW 20 28 11 15 - - 0.0
06/02:00pm 20.0 - - - - SW 24 37 13 20 - - 0.0
06/01:30pm 19.8 - - - - SW 24 37 13 20 - - 0.0
06/01:00pm 19.7 - - - - SW 30 43 16 23 - - 0.0
06/12:30pm 19.5 - - - - SW 30 39 16 21 - - 0.0
06/12:00pm 19.0 - - - - SW 28 43 15 23 - - 0.0
06/11:30am 18.7 - - - - SW 26 37 14 20 - - 0.0
06/11:00am 18.9 - - - - SW 30 41 16 22 - - 0.0
06/10:30am 16.9 - - - - SW 26 35 14 19 - - 0.0
06/10:00am 16.3 - - - - SW 24 37 13 20 - - 0.0
06/09:30am 16.1 - - - - SW 28 41 15 22 - - 0.0
06/09:07am 15.6 - - - - SW 28 46 15 25 - - 0.0
06/09:00am 15.3 - - - - WSW 22 30 12 16 - - 0.0
06/08:30am 14.5 - - - - WSW 19 26 10 14 - - 0.0
06/08:00am 13.9 - - - - W 13 19 7 10 - - 0.0
06/07:30am 13.7 - - - - W 15 22 8 12 - - 0.0
06/07:00am 13.5 - - - - WSW 11 19 6 10 - - 0.0
06/06:30am 13.1 - - - - WSW 9 13 5 7 - - 0.0
06/06:00am 13.0 - - - - WSW 13 17 7 9 - - 0.0
06/05:30am 12.9 - - - - WSW 13 20 7 11 - - 0.0
06/05:00am 12.6 - - - - WSW 17 26 9 14 - - 0.0
06/04:30am 12.9 - - - - WSW 19 26 10 14 - - 0.0
06/04:00am 12.1 - - - - WSW 15 24 8 13 - - 0.0
06/03:30am 11.7 - - - - WSW 15 20 8 11 - - 0.0
06/03:00am 11.7 - - - - WSW 17 20 9 11 - - 0.0
06/02:30am 11.4 - - - - W 19 24 10 13 - - 0.0
06/02:00am 11.1 - - - - W 15 20 8 11 - - 0.0
06/01:30am 11.3 - - - - W 15 19 8 10 - - 0.0
06/01:00am 12.0 - - - - W 17 20 9 11 - - 0.0
06/12:30am 12.2 - - - - W 15 20 8 11 - - 0.0
06/12:00am 12.5 - - - - W 17 24 9 13 - - 0.0
 
Date/Time
EDT
Temp
°C
App
Temp
°C
Dew
Point
Rel
Hum
%
Delta-T
°C
Wind Press
QNH
hPa
Press
MSL
hPa
Rain
since 9 am
mm
Dir
 
Spd
km/h
Gust
km/h
Spd
kts
Gust
kts
05/11:30pm 13.1 - - - - W 17 22 9 12 - - 0.0
05/11:00pm 13.7 - - - - WSW 19 32 10 17 - - 0.0
05/10:30pm 14.3 - - - - WSW 24 32 13 17 - - 0.0
05/10:00pm 14.8 - - - - SW 28 37 15 20 - - 0.0
05/09:30pm 15.4 - - - - SW 22 33 12 18 - - 0.0
05/09:00pm 16.4 - - - - SW 28 35 15 19 - - 0.0
05/08:30pm 17.1 - - - - SW 24 32 13 17 - - 0.0
05/08:00pm 18.0 - - - - SW 22 30 12 16 - - 0.0
05/07:30pm 19.1 - - - - SSW 28 35 15 19 - - 0.0
05/07:00pm 20.1 - - - - SSW 24 37 13 20 - - 0.0
05/06:30pm 21.6 - - - - SW 28 39 15 21 - - 0.0
05/06:00pm 22.5 - - - - SW 24 35 13 19 - - 0.0
05/05:42pm 22.3 - - - - SW 28 48 15 26 - - 0.0
05/05:30pm 22.2 - - - - SW 28 39 15 21 - - 0.0
05/05:00pm 22.6 - - - - SW 26 39 14 21 - - 0.0
05/04:30pm 21.8 - - - - SW 26 39 14 21 - - 0.0
05/04:00pm 22.5 - - - - SW 26 39 14 21 - - 0.0
05/03:30pm 22.0 - - - - SW 28 44 15 24 - - 0.0
05/03:00pm 21.4 - - - - SW 24 37 13 20 - - 0.0
05/02:30pm 21.0 - - - - SW 22 33 12 18 - - 0.0
05/02:00pm 21.0 - - - - SW 26 41 14 22 - - 0.0
05/01:30pm 19.9 - - - - SSW 24 35 13 19 - - 0.0
05/01:00pm 18.8 - - - - SW 24 39 13 21 - - 0.0
05/12:30pm 19.0 - - - - S 24 39 13 21 - - 0.0
05/12:00pm 18.0 - - - - SSW 24 35 13 19 - - 0.0
05/11:30am 17.2 - - - - S 26 39 14 21 - - 0.0
05/11:00am 16.5 - - - - SSW 30 37 16 20 - - 0.0
05/10:30am 15.4 - - - - S 33 44 18 24 - - 0.0
05/10:00am 14.5 - - - - S 24 33 13 18 - - 0.0
05/09:30am 13.8 - - - - SSW 24 35 13 19 - - 0.0
05/09:00am 13.0 - - - - SW 20 28 11 15 - - 0.0
05/08:30am 12.2 - - - - SW 17 24 9 13 - - 0.0
05/08:00am 11.0 - - - - SW 11 15 6 8 - - 0.0
05/07:30am 10.3 - - - - SW 15 20 8 11 - - 0.0
05/07:00am 10.9 - - - - SW 17 26 9 14 - - 0.0
05/06:30am 11.1 - - - - SW 19 26 10 14 - - 0.0
05/06:00am 11.7 - - - - SSW 24 33 13 18 - - 0.0
05/05:30am 12.1 - - - - SSW 32 44 17 24 - - 0.0
05/05:00am 12.8 - - - - SSW 33 46 18 25 - - 0.0
05/04:30am 13.4 - - - - SSW 28 48 15 26 - - 0.0
05/04:00am 13.8 - - - - SW 35 52 19 28 - - 0.0
05/03:43am 14.1 - - - - SW 35 56 19 30 - - 0.0
05/03:30am 14.6 - - - - SW 35 52 19 28 - - 0.0
05/03:12am 14.9 - - - - SW 37 57 20 31 - - 0.0
05/03:00am 14.8 - - - - SW 32 48 17 26 - - 0.0
05/02:30am 15.3 - - - - WSW 33 48 18 26 - - 0.0
05/02:00am 15.5 - - - - WSW 35 48 19 26 - - 0.0
05/01:30am 14.9 - - - - WSW 39 61 21 33 - - 0.0
05/01:26am 16.5 - - - - WSW 32 61 17 33 - - 0.0
05/01:00am 16.1 - - - - W 28 37 15 20 - - 0.0
05/12:30am 15.9 - - - - W 32 41 17 22 - - 0.0
05/12:00am 16.2 - - - - W 30 41 16 22 - - 0.0
 
Date/Time
EDT
Temp
°C
App
Temp
°C
Dew
Point
Rel
Hum
%
Delta-T
°C
Wind Press
QNH
hPa
Press
MSL
hPa
Rain
since 9 am
mm
Dir
 
Spd
km/h
Gust
km/h
Spd
kts
Gust
kts
04/11:30pm 16.5 - - - - W 30 41 16 22 - - 0.0
04/11:00pm 16.4 - - - - W 28 37 15 20 - - 0.0
04/10:30pm 16.9 - - - - W 30 43 16 23 - - 0.0
04/10:00pm 17.9 - - - - W 32 43 17 23 - - 0.0
04/09:30pm 18.8 - - - - W 32 44 17 24 - - 0.0
04/09:00pm 19.1 - - - - W 26 37 14 20 - - 0.0
04/08:30pm 19.3 - - - - W 30 39 16 21 - - 0.0
04/08:00pm 19.9 - - - - W 20 33 11 18 - - 0.0
04/07:30pm 20.4 - - - - WSW 32 41 17 22 - - 0.0
04/07:00pm 21.5 - - - - WSW 32 41 17 22 - - 0.0
04/06:30pm 22.5 - - - - WSW 28 43 15 23 - - 0.0
04/06:00pm 22.5 - - - - W 32 43 17 23 - - 0.0
04/05:30pm 22.8 - - - - W 30 41 16 22 - - 0.0
04/05:00pm 23.1 - - - - W 28 39 15 21 - - 0.0
04/04:30pm 23.5 - - - - W 30 41 16 22 - - 0.0
04/04:00pm 23.6 - - - - WSW 26 44 14 24 - - 0.0
04/03:30pm 23.2 - - - - WSW 26 39 14 21 - - 0.0
04/03:00pm 22.7 - - - - WSW 24 39 13 21 - - 0.0
04/02:30pm 23.2 - - - - WSW 22 35 12 19 - - 0.0
04/02:00pm 22.7 - - - - WSW 20 32 11 17 - - 0.0
04/01:30pm 21.2 - - - - WSW 22 33 12 18 - - 0.0
04/01:00pm 21.7 - - - - WSW 20 32 11 17 - - 0.0
04/12:30pm 20.6 - - - - SW 22 32 12 17 - - 0.0
04/12:00pm 19.4 - - - - WSW 20 33 11 18 - - 0.0
04/11:30am 18.6 - - - - WSW 19 30 10 16 - - 0.0

Other Formats:

Comma delimited format used in spreadsheet applications
http://www.bom.gov.au/fwo/IDV60801/IDV60801.95835.axf

JavaScript Object Notation format (JSON) in row-major order
http://www.bom.gov.au/fwo/IDV60801/IDV60801.95835.json